createdAt,value
2017-07-27T00:00:49.525Z,999.45
2017-07-27T00:01:49.516Z,999.47
2017-07-27T00:02:49.511Z,999.54
2017-07-27T00:03:49.498Z,999.46
2017-07-27T00:04:49.526Z,999.56
2017-07-27T00:05:49.479Z,999.54
2017-07-27T00:06:49.471Z,999.56
2017-07-27T00:07:49.462Z,999.54
2017-07-27T00:08:49.452Z,999.54
2017-07-27T00:09:49.444Z,999.6
2017-07-27T00:10:49.433Z,999.6
2017-07-27T00:11:49.423Z,999.54
2017-07-27T00:12:49.416Z,999.53
2017-07-27T00:13:49.406Z,999.49
2017-07-27T00:14:49.398Z,999.51
2017-07-27T00:15:49.390Z,999.52
2017-07-27T00:16:49.378Z,999.53
2017-07-27T00:17:49.406Z,999.47
2017-07-27T00:18:49.360Z,999.44
2017-07-27T00:19:49.352Z,999.42
2017-07-27T00:20:49.339Z,999.44
2017-07-27T00:21:49.538Z,999.4
2017-07-27T00:22:49.320Z,999.43
2017-07-27T00:23:49.312Z,999.4
2017-07-27T00:24:49.304Z,999.38
2017-07-27T00:25:49.292Z,999.32
2017-07-27T00:26:49.282Z,999.34
2017-07-27T00:27:49.274Z,999.3
2017-07-27T00:28:49.263Z,999.28
2017-07-27T00:29:49.257Z,999.24
2017-07-27T00:30:49.245Z,999.3
2017-07-27T00:31:49.237Z,999.29
2017-07-27T00:32:49.228Z,999.29
2017-07-27T00:33:49.217Z,999.28
2017-07-27T00:34:49.209Z,999.23
2017-07-27T00:35:49.197Z,999.23
2017-07-27T00:36:49.189Z,999.24
2017-07-27T00:37:49.179Z,999.27
2017-07-27T00:38:49.172Z,999.3
2017-07-27T00:39:49.160Z,999.3
2017-07-27T00:40:49.149Z,999.29
2017-07-27T00:41:49.140Z,999.31
2017-07-27T00:42:49.130Z,999.29
2017-07-27T00:43:49.121Z,999.32
2017-07-27T00:44:49.117Z,999.29
2017-07-27T00:45:49.104Z,999.29
2017-07-27T00:46:49.095Z,999.27
2017-07-27T00:47:49.083Z,999.23
2017-07-27T00:48:49.075Z,999.2
2017-07-27T00:49:49.065Z,999.17
2017-07-27T00:50:49.055Z,999.17
2017-07-27T00:51:49.045Z,999.13
2017-07-27T00:52:49.035Z,999.1
2017-07-27T00:53:49.024Z,999.13
2017-07-27T00:54:49.015Z,999.1
2017-07-27T00:55:49.006Z,999.13
2017-07-27T00:56:48.999Z,999.18
2017-07-27T00:57:48.990Z,999.2
2017-07-27T00:58:48.977Z,999.22
2017-07-27T00:59:48.967Z,999.18
2017-07-27T01:00:48.961Z,999.22
2017-07-27T01:01:48.951Z,999.2
2017-07-27T01:02:48.936Z,999.22
2017-07-27T01:03:48.934Z,999.17
2017-07-27T01:04:48.920Z,999.15
2017-07-27T01:05:48.909Z,999.17
2017-07-27T01:06:48.900Z,999.19
2017-07-27T01:07:48.891Z,999.15
2017-07-27T01:08:48.882Z,999.15
2017-07-27T01:09:48.872Z,999.16
2017-07-27T01:10:48.861Z,999.11
2017-07-27T01:11:48.853Z,999.11
2017-07-27T01:12:48.843Z,999.11
2017-07-27T01:13:48.831Z,999.09
2017-07-27T01:14:49.024Z,999.12
2017-07-27T01:15:49.016Z,999.08
2017-07-27T01:16:48.802Z,999.12
2017-07-27T01:17:48.794Z,999.08
2017-07-27T01:18:48.783Z,999.09
2017-07-27T01:19:48.776Z,999.11
2017-07-27T01:20:48.764Z,999.1
2017-07-27T01:21:48.755Z,999.1
2017-07-27T01:22:48.745Z,999.05
2017-07-27T01:23:48.736Z,999.02
2017-07-27T01:24:48.725Z,999.01
2017-07-27T01:25:48.715Z,999.02
2017-07-27T01:26:48.705Z,999.01
2017-07-27T01:27:48.695Z,998.99
2017-07-27T01:28:48.685Z,998.94
2017-07-27T01:29:48.675Z,998.92
2017-07-27T01:30:48.666Z,998.9
2017-07-27T01:31:48.657Z,998.92
2017-07-27T01:32:48.645Z,998.91
2017-07-27T01:33:48.637Z,998.88
2017-07-27T01:34:48.628Z,998.87
2017-07-27T01:35:48.616Z,998.92
2017-07-27T01:36:48.607Z,998.88
2017-07-27T01:37:48.599Z,998.85
2017-07-27T01:38:48.590Z,998.9
2017-07-27T01:39:48.578Z,998.84
2017-07-27T01:40:48.572Z,998.83
2017-07-27T01:41:48.559Z,998.81
2017-07-27T01:42:48.550Z,998.84
2017-07-27T01:43:48.538Z,998.84
2017-07-27T01:44:48.530Z,998.79
2017-07-27T01:45:48.522Z,998.86
2017-07-27T01:46:48.509Z,998.8
2017-07-27T01:47:48.501Z,998.82
2017-07-27T01:48:48.490Z,998.82
2017-07-27T01:49:48.482Z,998.85
2017-07-27T01:50:48.470Z,998.8
2017-07-27T01:51:48.460Z,998.88
2017-07-27T01:52:48.451Z,998.85
2017-07-27T01:53:48.440Z,998.9
2017-07-27T01:54:48.430Z,998.85
2017-07-27T01:55:48.421Z,998.83
2017-07-27T01:56:48.414Z,998.8
2017-07-27T01:57:48.405Z,998.81
2017-07-27T01:58:48.392Z,998.81
2017-07-27T01:59:48.380Z,998.8
2017-07-27T02:00:48.372Z,998.77
2017-07-27T02:01:48.361Z,998.75
2017-07-27T02:02:48.354Z,998.76
2017-07-27T02:03:48.342Z,998.79
2017-07-27T02:04:48.331Z,998.71
2017-07-27T02:05:48.325Z,998.78
2017-07-27T02:06:48.311Z,998.78
2017-07-27T02:07:48.301Z,998.8
2017-07-27T02:08:48.292Z,998.81
2017-07-27T02:09:48.283Z,998.82
2017-07-27T02:10:48.272Z,998.8
2017-07-27T02:11:48.265Z,998.83
2017-07-27T02:12:48.251Z,998.8
2017-07-27T02:13:48.240Z,998.79
2017-07-27T02:14:48.233Z,998.81
2017-07-27T02:15:48.221Z,998.82
2017-07-27T02:16:48.244Z,998.82
2017-07-27T02:17:48.201Z,998.82
2017-07-27T02:18:48.192Z,998.8
2017-07-27T02:19:48.181Z,998.82
2017-07-27T02:20:48.170Z,998.81
2017-07-27T02:21:48.163Z,998.79
2017-07-27T02:22:48.150Z,998.8
2017-07-27T02:23:48.138Z,998.81
2017-07-27T02:24:48.129Z,998.78
2017-07-27T02:25:48.120Z,998.8
2017-07-27T02:26:48.107Z,998.8
2017-07-27T02:27:48.097Z,998.78
2017-07-27T02:28:48.089Z,998.79
2017-07-27T02:29:48.077Z,998.73
2017-07-27T02:30:48.067Z,998.72
2017-07-27T02:31:48.059Z,998.71
2017-07-27T02:32:48.045Z,998.73
2017-07-27T02:33:48.038Z,998.71
2017-07-27T02:34:48.023Z,998.68
2017-07-27T02:35:48.016Z,998.72
2017-07-27T02:36:48.004Z,998.66
2017-07-27T02:37:47.991Z,998.69
2017-07-27T02:38:47.982Z,998.66
2017-07-27T02:39:47.970Z,998.68
2017-07-27T02:40:47.962Z,998.65
2017-07-27T02:41:47.952Z,998.64
2017-07-27T02:42:47.954Z,998.68
2017-07-27T02:43:47.930Z,998.68
2017-07-27T02:44:47.919Z,998.65
2017-07-27T02:45:47.907Z,998.72
2017-07-27T02:46:47.899Z,998.65
2017-07-27T02:47:47.887Z,998.69
2017-07-27T02:48:47.875Z,998.64
2017-07-27T02:49:47.863Z,998.61
2017-07-27T02:50:47.856Z,998.62
2017-07-27T02:51:47.847Z,998.59
2017-07-27T02:52:47.831Z,998.56
2017-07-27T02:53:47.823Z,998.52
2017-07-27T02:54:47.811Z,998.48
2017-07-27T02:55:47.799Z,998.49
2017-07-27T02:56:47.788Z,998.46
2017-07-27T02:57:47.777Z,998.46
2017-07-27T02:58:47.768Z,998.5
2017-07-27T02:59:47.755Z,998.49
2017-07-27T03:00:47.746Z,998.49
2017-07-27T03:01:47.736Z,998.57
2017-07-27T03:02:47.723Z,998.56
2017-07-27T03:03:47.715Z,998.52
2017-07-27T03:04:47.703Z,998.52
2017-07-27T03:05:47.691Z,998.52
2017-07-27T03:06:47.682Z,998.48
2017-07-27T03:07:47.670Z,998.45
2017-07-27T03:08:47.660Z,998.41
2017-07-27T03:09:47.649Z,998.44
2017-07-27T03:10:47.639Z,998.4
2017-07-27T03:11:47.627Z,998.43
2017-07-27T03:12:47.615Z,998.42
2017-07-27T03:13:47.606Z,998.39
2017-07-27T03:14:47.800Z,998.43
2017-07-27T03:15:47.583Z,998.42
2017-07-27T03:16:47.574Z,998.42
2017-07-27T03:17:47.564Z,998.38
2017-07-27T03:18:47.551Z,998.42
2017-07-27T03:19:47.541Z,998.32
2017-07-27T03:20:47.531Z,998.33
2017-07-27T03:21:47.519Z,998.31
2017-07-27T03:22:47.509Z,998.32
2017-07-27T03:23:47.501Z,998.4
2017-07-27T03:24:47.488Z,998.37
2017-07-27T03:25:47.476Z,998.34
2017-07-27T03:26:47.467Z,998.37
2017-07-27T03:27:47.456Z,998.34
2017-07-27T03:28:47.446Z,998.32
2017-07-27T03:29:47.435Z,998.28
2017-07-27T03:30:47.424Z,998.24
2017-07-27T03:31:47.418Z,998.22
2017-07-27T03:32:47.402Z,998.2
2017-07-27T03:33:47.396Z,998.18
2017-07-27T03:34:47.382Z,998.2
2017-07-27T03:35:47.371Z,998.17
2017-07-27T03:36:47.360Z,998.22
2017-07-27T03:37:47.349Z,998.2
2017-07-27T03:38:47.339Z,998.14
2017-07-27T03:39:47.331Z,998.14
2017-07-27T03:40:47.319Z,998.18
2017-07-27T03:41:47.307Z,998.15
2017-07-27T03:42:47.298Z,998.17
2017-07-27T03:43:47.286Z,998.15
2017-07-27T03:44:47.276Z,998.12
2017-07-27T03:45:47.266Z,998.18
2017-07-27T03:46:47.256Z,998.15
2017-07-27T03:47:47.244Z,998.13
2017-07-27T03:48:47.233Z,998.11
2017-07-27T03:49:47.221Z,998.15
2017-07-27T03:50:47.212Z,998.18
2017-07-27T03:51:47.208Z,998.23
2017-07-27T03:52:47.194Z,998.28
2017-07-27T03:53:47.180Z,998.34
2017-07-27T03:54:47.183Z,998.34
2017-07-27T03:55:47.159Z,998.36
2017-07-27T03:56:47.148Z,998.35
2017-07-27T03:57:47.139Z,998.37
2017-07-27T03:58:47.128Z,998.37
2017-07-27T03:59:47.116Z,998.34
2017-07-27T04:00:47.106Z,998.38
2017-07-27T04:01:47.095Z,998.33
2017-07-27T04:02:47.089Z,998.25
2017-07-27T04:03:47.077Z,998.21
2017-07-27T04:04:47.068Z,998.25
2017-07-27T04:05:47.053Z,998.24
2017-07-27T04:06:47.042Z,998.31
2017-07-27T04:07:47.033Z,998.27
2017-07-27T04:08:47.023Z,998.31
2017-07-27T04:09:47.011Z,998.29
2017-07-27T04:10:47.001Z,998.3
2017-07-27T04:11:46.991Z,998.24
2017-07-27T04:12:46.979Z,998.23
2017-07-27T04:13:46.968Z,998.21
2017-07-27T04:14:46.958Z,998.26
2017-07-27T04:15:46.951Z,998.24
2017-07-27T04:16:46.938Z,998.18
2017-07-27T04:17:46.925Z,998.22
2017-07-27T04:18:46.915Z,998.13
2017-07-27T04:19:46.906Z,998.13
2017-07-27T04:20:46.893Z,998.15
2017-07-27T04:21:46.885Z,998.16
2017-07-27T04:22:46.873Z,998.09
2017-07-27T04:23:46.861Z,998.19
2017-07-27T04:24:46.850Z,998.16
2017-07-27T04:25:46.841Z,998.16
2017-07-27T04:26:46.830Z,998.17
2017-07-27T04:27:46.822Z,998.21
2017-07-27T04:28:46.809Z,998.2
2017-07-27T04:29:46.799Z,998.23
2017-07-27T04:30:46.793Z,998.21
2017-07-27T04:31:46.778Z,998.22
2017-07-27T04:32:46.768Z,998.24
2017-07-27T04:33:46.757Z,998.28
2017-07-27T04:34:46.746Z,998.34
2017-07-27T04:35:46.735Z,998.33
2017-07-27T04:36:46.724Z,998.35
2017-07-27T04:37:46.715Z,998.37
2017-07-27T04:38:46.708Z,998.37
2017-07-27T04:39:46.697Z,998.36
2017-07-27T04:40:46.684Z,998.32
2017-07-27T04:41:46.677Z,998.34
2017-07-27T04:42:46.663Z,998.33
2017-07-27T04:43:46.650Z,998.27
2017-07-27T04:44:46.642Z,998.27
2017-07-27T04:45:46.631Z,998.26
2017-07-27T04:46:46.619Z,998.21
2017-07-27T04:47:46.613Z,998.22
2017-07-27T04:48:46.604Z,998.26
2017-07-27T04:49:46.590Z,998.27
2017-07-27T04:50:46.580Z,998.25
2017-07-27T04:51:46.570Z,998.28
2017-07-27T04:52:46.560Z,998.28
2017-07-27T04:53:46.549Z,998.3
2017-07-27T04:54:46.538Z,998.33
2017-07-27T04:55:46.527Z,998.28
2017-07-27T04:56:46.519Z,998.27
2017-07-27T04:57:46.509Z,998.25
2017-07-27T04:58:46.498Z,998.26
2017-07-27T04:59:46.486Z,998.21
2017-07-27T05:00:46.476Z,998.23
2017-07-27T05:01:46.466Z,998.25
2017-07-27T05:02:46.456Z,998.22
2017-07-27T05:03:46.448Z,998.23
2017-07-27T05:04:46.436Z,998.21
2017-07-27T05:05:46.425Z,998.18
2017-07-27T05:06:46.418Z,998.25
2017-07-27T05:07:46.406Z,998.27
2017-07-27T05:08:46.394Z,998.22
2017-07-27T05:09:46.384Z,998.24
2017-07-27T05:10:46.376Z,998.29
2017-07-27T05:11:46.362Z,998.36
2017-07-27T05:12:46.354Z,998.32
2017-07-27T05:13:46.344Z,998.35
2017-07-27T05:14:46.537Z,998.37
2017-07-27T05:15:46.325Z,998.4
2017-07-27T05:16:46.315Z,998.49
2017-07-27T05:17:46.324Z,998.45
2017-07-27T05:18:46.294Z,998.47
2017-07-27T05:19:46.285Z,998.48
2017-07-27T05:20:46.275Z,998.5
2017-07-27T05:21:46.265Z,998.48
2017-07-27T05:22:46.254Z,998.5
2017-07-27T05:23:46.243Z,998.53
2017-07-27T05:24:46.234Z,998.5
2017-07-27T05:25:46.224Z,998.4
2017-07-27T05:26:46.214Z,998.32
2017-07-27T05:27:46.204Z,998.33
2017-07-27T05:28:46.193Z,998.42
2017-07-27T05:29:46.184Z,998.47
2017-07-27T05:30:46.177Z,998.42
2017-07-27T05:31:46.164Z,998.44
2017-07-27T05:32:46.155Z,998.39
2017-07-27T05:33:46.142Z,998.48
2017-07-27T05:34:46.134Z,998.44
2017-07-27T05:35:46.124Z,998.42
2017-07-27T05:36:46.113Z,998.4
2017-07-27T05:37:46.103Z,998.43
2017-07-27T05:38:46.094Z,998.41
2017-07-27T05:39:46.085Z,998.46
2017-07-27T05:40:46.073Z,998.43
2017-07-27T05:41:46.066Z,998.41
2017-07-27T05:42:46.053Z,998.39
2017-07-27T05:43:46.042Z,998.34
2017-07-27T05:44:46.034Z,998.33
2017-07-27T05:45:46.025Z,998.34
2017-07-27T05:46:46.015Z,998.34
2017-07-27T05:47:46.003Z,998.31
2017-07-27T05:48:45.993Z,998.3
2017-07-27T05:49:45.986Z,998.33
2017-07-27T05:50:45.976Z,998.35
2017-07-27T05:51:45.964Z,998.35
2017-07-27T05:52:45.954Z,998.35
2017-07-27T05:53:45.947Z,998.36
2017-07-27T05:54:45.939Z,998.41
2017-07-27T05:55:45.928Z,998.38
2017-07-27T05:56:45.918Z,998.4
2017-07-27T05:57:45.908Z,998.41
2017-07-27T05:58:45.898Z,998.46
2017-07-27T05:59:45.889Z,998.48
2017-07-27T06:00:45.879Z,998.5
2017-07-27T06:01:45.872Z,998.48
2017-07-27T06:02:45.868Z,998.46
2017-07-27T06:03:45.854Z,998.43
2017-07-27T06:04:45.844Z,998.39
2017-07-27T06:05:45.834Z,998.32
2017-07-27T06:06:45.824Z,998.33
2017-07-27T06:07:45.815Z,998.31
2017-07-27T06:08:45.807Z,998.29
2017-07-27T06:09:45.798Z,998.35
2017-07-27T06:10:45.788Z,998.41
2017-07-27T06:11:45.780Z,998.44
2017-07-27T06:12:45.776Z,998.48
2017-07-27T06:13:45.761Z,998.54
2017-07-27T06:14:45.751Z,998.65
2017-07-27T06:15:45.743Z,998.66
2017-07-27T06:16:45.735Z,998.62
2017-07-27T06:17:45.726Z,998.7
2017-07-27T06:18:45.716Z,998.63
2017-07-27T06:19:45.707Z,998.66
2017-07-27T06:20:45.699Z,998.71
2017-07-27T06:21:45.688Z,998.74
2017-07-27T06:22:45.680Z,998.76
2017-07-27T06:23:45.670Z,998.71
2017-07-27T06:24:45.663Z,998.73
2017-07-27T06:25:45.654Z,998.7
2017-07-27T06:26:45.644Z,998.75
2017-07-27T06:27:45.635Z,998.8
2017-07-27T06:28:45.625Z,998.78
2017-07-27T06:29:45.619Z,998.79
2017-07-27T06:30:45.608Z,998.88
2017-07-27T06:31:45.599Z,998.89
2017-07-27T06:32:45.590Z,998.93
2017-07-27T06:33:45.581Z,998.86
2017-07-27T06:34:45.574Z,998.85
2017-07-27T06:35:45.563Z,998.82
2017-07-27T06:36:45.553Z,998.88
2017-07-27T06:37:45.545Z,998.8
2017-07-27T06:38:45.537Z,998.78
2017-07-27T06:39:45.527Z,998.8
2017-07-27T06:40:45.520Z,998.78
2017-07-27T06:41:45.515Z,998.82
2017-07-27T06:42:45.499Z,998.76
2017-07-27T06:43:45.493Z,998.86
2017-07-27T06:44:45.484Z,998.79
2017-07-27T06:45:45.475Z,998.83
2017-07-27T06:46:45.464Z,998.79
2017-07-27T06:47:45.457Z,998.84
2017-07-27T06:48:45.449Z,998.9
2017-07-27T06:49:45.438Z,998.8
2017-07-27T06:50:45.432Z,998.78
2017-07-27T06:51:45.425Z,998.81
2017-07-27T06:52:45.414Z,998.79
2017-07-27T06:53:45.405Z,998.75
2017-07-27T06:54:45.398Z,998.76
2017-07-27T06:55:45.388Z,998.7
2017-07-27T06:56:45.383Z,998.68
2017-07-27T06:57:45.373Z,998.74
2017-07-27T06:58:45.363Z,998.77
2017-07-27T06:59:45.355Z,998.79
2017-07-27T07:00:45.349Z,998.8
2017-07-27T07:01:45.340Z,998.85
2017-07-27T07:02:45.331Z,998.82
2017-07-27T07:03:45.322Z,998.84
2017-07-27T07:04:45.313Z,998.76
2017-07-27T07:05:45.309Z,998.87
2017-07-27T07:06:45.300Z,998.88
2017-07-27T07:07:45.291Z,998.85
2017-07-27T07:08:45.281Z,998.9
2017-07-27T07:09:45.275Z,998.91
2017-07-27T07:10:45.266Z,998.89
2017-07-27T07:11:45.261Z,998.92
2017-07-27T07:12:45.248Z,998.87
2017-07-27T07:13:45.241Z,998.82
2017-07-27T07:14:45.436Z,998.85
2017-07-27T07:15:45.224Z,998.87
2017-07-27T07:16:45.216Z,998.89
2017-07-27T07:17:45.208Z,998.85
2017-07-27T07:18:45.200Z,998.82
2017-07-27T07:19:45.192Z,998.84
2017-07-27T07:20:45.192Z,998.88
2017-07-27T07:21:45.175Z,998.85
2017-07-27T07:22:45.165Z,998.87
2017-07-27T07:23:45.158Z,998.81
2017-07-27T07:24:45.150Z,998.78
2017-07-27T07:25:45.142Z,998.8
2017-07-27T07:26:45.135Z,998.84
2017-07-27T07:27:45.126Z,998.82
2017-07-27T07:28:45.119Z,998.85
2017-07-27T07:29:45.110Z,998.8
2017-07-27T07:30:45.119Z,998.78
2017-07-27T07:31:45.097Z,998.75
2017-07-27T07:32:45.087Z,998.79
2017-07-27T07:33:45.079Z,998.79
2017-07-27T07:34:45.071Z,998.88
2017-07-27T07:35:45.063Z,998.88
2017-07-27T07:36:45.060Z,998.88
2017-07-27T07:37:45.055Z,998.84
2017-07-27T07:38:45.040Z,998.87
2017-07-27T07:39:45.033Z,998.87
2017-07-27T07:40:45.025Z,998.86
2017-07-27T07:41:45.022Z,998.9
2017-07-27T07:42:45.010Z,998.89
2017-07-27T07:43:45.001Z,998.89
2017-07-27T07:44:44.996Z,998.87
2017-07-27T07:45:44.985Z,998.9
2017-07-27T07:46:44.979Z,998.91
2017-07-27T07:47:44.973Z,998.91
2017-07-27T07:48:44.961Z,998.89
2017-07-27T07:49:44.959Z,998.9
2017-07-27T07:50:44.946Z,998.87
2017-07-27T07:51:44.938Z,998.91
2017-07-27T07:52:44.930Z,998.89
2017-07-27T07:53:44.925Z,998.92
2017-07-27T07:54:44.917Z,998.9
2017-07-27T07:55:44.907Z,998.89
2017-07-27T07:56:44.901Z,998.91
2017-07-27T07:57:44.891Z,998.92
2017-07-27T07:58:44.884Z,998.98
2017-07-27T07:59:44.876Z,998.98
2017-07-27T08:00:44.867Z,999
2017-07-27T08:01:44.861Z,998.98
2017-07-27T08:02:44.853Z,998.99
2017-07-27T08:03:44.844Z,998.95
2017-07-27T08:04:44.836Z,998.94
2017-07-27T08:05:44.828Z,998.94
2017-07-27T08:06:44.825Z,998.99
2017-07-27T08:07:44.812Z,999
2017-07-27T08:08:44.805Z,998.95
2017-07-27T08:09:44.797Z,999
2017-07-27T08:10:44.790Z,999.03
2017-07-27T08:11:44.782Z,999
2017-07-27T08:12:44.774Z,999.02
2017-07-27T08:13:44.768Z,999.04
2017-07-27T08:14:44.757Z,999.11
2017-07-27T08:15:44.753Z,999.16
2017-07-27T08:16:44.743Z,999.14
2017-07-27T08:17:44.735Z,999.16
2017-07-27T08:18:44.727Z,999.14
2017-07-27T08:19:44.718Z,999.14
2017-07-27T08:20:44.712Z,999.25
2017-07-27T08:21:44.706Z,999.21
2017-07-27T08:22:44.699Z,999.14
2017-07-27T08:23:44.691Z,999.25
2017-07-27T08:24:44.684Z,999.2
2017-07-27T08:25:44.675Z,999.25
2017-07-27T08:26:44.671Z,999.15
2017-07-27T08:27:44.663Z,999.2
2017-07-27T08:28:44.656Z,999.29
2017-07-27T08:29:44.650Z,999.34
2017-07-27T08:30:44.644Z,999.45
2017-07-27T08:31:44.642Z,999.14
2017-07-27T08:32:44.632Z,999.08
2017-07-27T08:33:44.626Z,999.08
2017-07-27T08:34:44.620Z,999.13
2017-07-27T08:35:44.613Z,999.15
2017-07-27T08:36:44.608Z,999.13
2017-07-27T08:37:44.601Z,999.14
2017-07-27T08:38:44.596Z,999.09
2017-07-27T08:39:44.591Z,999.12
2017-07-27T08:40:44.590Z,999.12
2017-07-27T08:41:44.580Z,999.27
2017-07-27T08:42:44.575Z,999.16
2017-07-27T08:43:44.569Z,999.01
2017-07-27T08:44:44.565Z,999.16
2017-07-27T08:45:44.561Z,999.16
2017-07-27T08:46:44.554Z,999.25
2017-07-27T08:47:44.549Z,999.05
2017-07-27T08:48:44.545Z,999
2017-07-27T08:49:44.540Z,998.92
2017-07-27T08:50:44.534Z,998.88
2017-07-27T08:51:44.529Z,998.86
2017-07-27T08:52:44.525Z,998.75
2017-07-27T08:53:44.521Z,998.77
2017-07-27T08:54:44.514Z,998.76
2017-07-27T08:55:44.510Z,998.79
2017-07-27T08:56:44.506Z,998.74
2017-07-27T08:57:44.502Z,998.83
2017-07-27T08:58:44.495Z,998.85
2017-07-27T08:59:44.490Z,999
2017-07-27T09:00:44.483Z,999.07
2017-07-27T09:01:44.477Z,999.09
2017-07-27T09:02:44.472Z,999.09
2017-07-27T09:03:44.466Z,999.04
2017-07-27T09:04:44.461Z,998.98
2017-07-27T09:05:44.454Z,999.03
2017-07-27T09:06:44.448Z,999.04
2017-07-27T09:07:44.443Z,999.09
2017-07-27T09:08:44.437Z,999.11
2017-07-27T09:09:44.429Z,999.13
2017-07-27T09:10:44.424Z,999.18
2017-07-27T09:11:44.417Z,999.17
2017-07-27T09:12:44.409Z,999.21
2017-07-27T09:13:44.405Z,999.2
2017-07-27T09:14:44.397Z,999.2
2017-07-27T09:15:44.394Z,999.18
2017-07-27T09:16:44.385Z,999.18
2017-07-27T09:17:44.377Z,999.26
2017-07-27T09:18:44.373Z,999.27
2017-07-27T09:19:44.370Z,999.23
2017-07-27T09:20:44.359Z,999.22
2017-07-27T09:21:44.356Z,999.2
2017-07-27T09:22:44.348Z,999.22
2017-07-27T09:23:44.341Z,999.22
2017-07-27T09:24:44.336Z,999.24
2017-07-27T09:25:44.329Z,999.17
2017-07-27T09:26:44.324Z,999.15
2017-07-27T09:27:44.318Z,999.24
2017-07-27T09:28:44.313Z,999.27
2017-07-27T09:29:44.310Z,999.19
2017-07-27T09:30:44.300Z,999.21
2017-07-27T09:31:44.295Z,999.24
2017-07-27T09:32:44.289Z,999.32
2017-07-27T09:33:44.283Z,999.21
2017-07-27T09:34:44.279Z,999.18
2017-07-27T09:35:44.272Z,999.21
2017-07-27T09:36:44.269Z,999.25
2017-07-27T09:37:44.261Z,999.29
2017-07-27T09:38:44.256Z,999.32
2017-07-27T09:39:44.249Z,999.27
2017-07-27T09:40:44.244Z,999.23
2017-07-27T09:41:44.237Z,999.27
2017-07-27T09:42:44.234Z,999.25
2017-07-27T09:43:44.226Z,999.29
2017-07-27T09:44:44.221Z,999.31
2017-07-27T09:45:44.213Z,999.28
2017-07-27T09:46:44.412Z,999.3
2017-07-27T09:47:44.203Z,999.33
2017-07-27T09:48:44.196Z,999.33
2017-07-27T09:49:44.191Z,999.39
2017-07-27T09:50:44.186Z,999.33
2017-07-27T09:51:44.179Z,999.26
2017-07-27T09:52:44.176Z,999.21
2017-07-27T09:53:44.168Z,999.18
2017-07-27T09:54:44.165Z,999.13
2017-07-27T09:55:44.156Z,999.18
2017-07-27T09:56:44.151Z,999.16
2017-07-27T09:57:44.144Z,999.13
2017-07-27T09:58:44.139Z,999.17
2017-07-27T09:59:44.137Z,999.17
2017-07-27T10:00:44.132Z,999.14
2017-07-27T10:01:44.124Z,999.13
2017-07-27T10:02:44.118Z,999.12
2017-07-27T10:03:44.115Z,999.1
2017-07-27T10:04:44.106Z,999.11
2017-07-27T10:05:44.100Z,999.11
2017-07-27T10:06:44.097Z,999.22
2017-07-27T10:07:44.090Z,999.18
2017-07-27T10:08:44.086Z,999.15
2017-07-27T10:09:44.080Z,999.14
2017-07-27T10:10:44.073Z,999.08
2017-07-27T10:11:44.068Z,999.15
2017-07-27T10:12:44.062Z,999.16
2017-07-27T10:13:44.056Z,999.16
2017-07-27T10:14:44.049Z,999.13
2017-07-27T10:15:44.044Z,999.11
2017-07-27T10:16:44.040Z,999.16
2017-07-27T10:17:44.032Z,999.18
2017-07-27T10:18:44.026Z,999.1
2017-07-27T10:19:44.019Z,999.12
2017-07-27T10:20:44.015Z,999.06
2017-07-27T10:21:44.007Z,999.04
2017-07-27T10:22:44.001Z,999.07
2017-07-27T10:23:43.994Z,999.04
2017-07-27T10:24:43.993Z,999.01
2017-07-27T10:25:43.985Z,999.01
2017-07-27T10:26:43.979Z,999.06
2017-07-27T10:27:43.974Z,999.02
2017-07-27T10:28:43.967Z,998.98
2017-07-27T10:29:43.963Z,998.96
2017-07-27T10:30:43.957Z,998.89
2017-07-27T10:31:43.953Z,998.93
2017-07-27T10:32:43.944Z,998.91
2017-07-27T10:33:43.943Z,998.95
2017-07-27T10:34:43.933Z,998.89
2017-07-27T10:35:43.931Z,998.88
2017-07-27T10:36:43.921Z,998.93
2017-07-27T10:37:43.917Z,998.99
2017-07-27T10:38:43.936Z,998.99
2017-07-27T10:39:43.906Z,999.05
2017-07-27T10:40:43.903Z,998.95
2017-07-27T10:41:43.896Z,999
2017-07-27T10:42:43.891Z,999.05
2017-07-27T10:43:43.885Z,999.08
2017-07-27T10:44:43.879Z,999.13
2017-07-27T10:45:43.876Z,999.11
2017-07-27T10:46:43.881Z,999.12
2017-07-27T10:47:43.867Z,999.15
2017-07-27T10:48:43.861Z,999.12
2017-07-27T10:49:43.858Z,999.15
2017-07-27T10:50:43.853Z,999.2
2017-07-27T10:51:43.849Z,999.13
2017-07-27T10:52:43.845Z,999.16
2017-07-27T10:53:43.841Z,999.28
2017-07-27T10:54:43.838Z,999.25
2017-07-27T10:55:43.838Z,999.19
2017-07-27T10:56:43.830Z,999.28
2017-07-27T10:57:43.828Z,999.26
2017-07-27T10:58:43.824Z,999.23
2017-07-27T10:59:43.821Z,999.18
2017-07-27T11:00:43.825Z,999.22
2017-07-27T11:01:43.815Z,999.25
2017-07-27T11:02:43.812Z,999.28
2017-07-27T11:03:43.808Z,999.22
2017-07-27T11:04:43.808Z,999.19
2017-07-27T11:05:43.801Z,999.22
2017-07-27T11:06:43.799Z,999.18
2017-07-27T11:07:43.795Z,999.26
2017-07-27T11:08:43.793Z,999.25
2017-07-27T11:09:43.788Z,999.26
2017-07-27T11:10:43.786Z,999.28
2017-07-27T11:11:43.781Z,999.27
2017-07-27T11:12:43.781Z,999.31
2017-07-27T11:13:43.774Z,999.37
2017-07-27T11:14:43.770Z,999.33
2017-07-27T11:15:43.971Z,999.27
2017-07-27T11:16:43.761Z,999.23
2017-07-27T11:17:43.760Z,999.21
2017-07-27T11:18:43.761Z,999.21
2017-07-27T11:19:43.750Z,999.19
2017-07-27T11:20:43.745Z,999.26
2017-07-27T11:21:43.743Z,999.19
2017-07-27T11:22:43.737Z,999.16
2017-07-27T11:23:43.757Z,999.26
2017-07-27T11:24:43.732Z,999.27
2017-07-27T11:25:43.725Z,999.23
2017-07-27T11:26:43.720Z,999.27
2017-07-27T11:27:43.713Z,999.23
2017-07-27T11:28:43.717Z,999.23
2017-07-27T11:29:43.706Z,999.22
2017-07-27T11:30:43.700Z,999.15
2017-07-27T11:31:43.695Z,999.19
2017-07-27T11:32:43.690Z,999.21
2017-07-27T11:33:43.685Z,999.25
2017-07-27T11:34:43.681Z,999.23
2017-07-27T11:35:43.675Z,999.23
2017-07-27T11:36:43.675Z,999.25
2017-07-27T11:37:43.665Z,999.25
2017-07-27T11:38:43.661Z,999.31
2017-07-27T11:39:43.658Z,999.35
2017-07-27T11:40:43.653Z,999.33
2017-07-27T11:41:43.645Z,999.35
2017-07-27T11:42:43.640Z,999.32
2017-07-27T11:43:43.634Z,999.42
2017-07-27T11:44:43.629Z,999.44
2017-07-27T11:45:43.624Z,999.49
2017-07-27T11:46:43.619Z,999.57
2017-07-27T11:47:43.614Z,999.55
2017-07-27T11:48:43.609Z,999.59
2017-07-27T11:49:43.603Z,999.55
2017-07-27T11:50:43.597Z,999.45
2017-07-27T11:51:43.595Z,999.48
2017-07-27T11:52:43.587Z,999.49
2017-07-27T11:53:43.584Z,999.45
2017-07-27T11:54:43.576Z,999.46
2017-07-27T11:55:43.572Z,999.49
2017-07-27T11:56:43.567Z,999.49
2017-07-27T11:57:43.559Z,999.42
2017-07-27T11:58:43.557Z,999.39
2017-07-27T11:59:43.551Z,999.41
2017-07-27T12:00:43.543Z,999.38
2017-07-27T12:01:43.543Z,999.4
2017-07-27T12:02:43.533Z,999.42
2017-07-27T12:03:43.529Z,999.34
2017-07-27T12:04:43.522Z,999.39
2017-07-27T12:05:43.517Z,999.41
2017-07-27T12:06:43.514Z,999.44
2017-07-27T12:07:43.508Z,999.46
2017-07-27T12:08:43.503Z,999.39
2017-07-27T12:09:43.499Z,999.34
2017-07-27T12:10:43.493Z,999.37
2017-07-27T12:11:43.486Z,999.31
2017-07-27T12:12:43.483Z,999.28
2017-07-27T12:13:43.476Z,999.25
2017-07-27T12:14:43.472Z,999.25
2017-07-27T12:15:43.465Z,999.3
2017-07-27T12:16:43.460Z,999.29
2017-07-27T12:17:43.457Z,999.36
2017-07-27T12:18:43.451Z,999.36
2017-07-27T12:19:43.445Z,999.49
2017-07-27T12:20:43.440Z,999.35
2017-07-27T12:21:43.438Z,999.33
2017-07-27T12:22:43.430Z,999.27
2017-07-27T12:23:43.430Z,999.28
2017-07-27T12:24:43.425Z,999.26
2017-07-27T12:25:43.420Z,999.2
2017-07-27T12:26:43.411Z,999.31
2017-07-27T12:27:43.407Z,999.24
2017-07-27T12:28:43.408Z,999.27
2017-07-27T12:29:43.397Z,999.27
2017-07-27T12:30:43.395Z,999.26
2017-07-27T12:31:43.390Z,999.19